Time;durP1;ratioP1;P1;durP2;ratioP2;P2;SDS_P1;SDS_P2;PMS_P1;PMS_P2;Temp;Humidity;BMP_temperature;BMP_pressure;BME280_temperature;BME280_humidity;BME280_pressure;Samples;Min_cycle;Max_cycle;Signal;HPM_P1;HPM_P2
2022/06/08 01:17:37;;;;;;;;;;;;;;;;;;;;;
2022/06/08 02:11:18;;;;;;;0.63;0.63;;;18.40;99.90;;;;;;4858586;29;20045;-87
2022/06/08 03:06:04;;;;;;;;;;;;;;;;;;;;;
2022/06/08 04:13:00;;;;;;;3.45;1.17;;;19.50;99.90;;;;;;4908928;29;20064;-88
2022/06/08 04:15:48;;;;;;;2.25;0.93;;;19.60;99.90;;;;;;4902090;29;20059;-86
2022/06/08 04:18:26;;;;;;;9.02;1.00;;;19.60;99.90;;;;;;4901176;29;20131;-87
2022/06/08 04:20:59;;;;;;;2.08;0.80;;;19.60;99.90;;;;;;4902284;29;20032;-87
2022/06/08 04:23:31;;;;;;;2.90;0.80;;;19.70;99.90;;;;;;4918956;29;20050;-88
2022/06/08 04:25:57;;;;;;;;;;;19.70;99.90;;;;;;4919466;29;20032;-87
2022/06/08 04:28:42;;;;;;;;;;;;;;;;;;;;;
2022/06/08 04:31:09;;;;;;;4.38;1.05;;;19.80;99.90;;;;;;4918351;29;20516;-88
2022/06/08 04:33:49;;;;;;;2.85;0.98;;;19.90;99.90;;;;;;4918366;29;20111;-86
2022/06/08 04:36:18;;;;;;;1.65;0.80;;;20.00;99.90;;;;;;4901547;29;20036;-87
2022/06/08 04:38:47;;;;;;;0.60;0.60;;;20.10;99.90;;;;;;4901489;29;20041;-87
2022/06/08 04:41:38;;;;;;;;;;;;;;;;;;;;;
2022/06/08 04:44:38;;;;;;;1.70;0.77;;;20.00;99.90;;;;;;4918461;29;20035;-86
2022/06/08 04:47:18;;;;;;;1.63;0.80;;;20.00;99.90;;;;;;4917080;29;20036;-87
2022/06/08 04:49:53;;;;;;;1.25;0.57;;;20.10;99.90;;;;;;4899991;29;20075;-88
2022/06/08 04:52:30;;;;;;;1.95;0.70;;;20.10;99.90;;;;;;4917756;29;20044;-87
2022/06/08 04:55:12;;;;;;;1.75;0.65;;;20.10;99.90;;;;;;4918265;29;20125;-88
2022/06/08 04:57:46;;;;;;;0.98;0.43;;;20.10;99.90;;;;;;4917069;29;20409;-87
2022/06/08 05:00:20;;;;;;;3.85;0.50;;;20.00;99.90;;;;;;4918200;29;20047;-88
2022/06/08 05:03:01;;;;;;;3.25;0.60;;;20.00;99.90;;;;;;4900788;29;20042;-89
2022/06/08 05:05:56;;;;;;;0.50;0.50;;;20.00;99.90;;;;;;4917360;29;20032;-88
2022/06/08 05:08:34;;;;;;;0.40;0.40;;;20.00;99.90;;;;;;4913296;29;20074;-89
2022/06/08 05:11:14;;;;;;;5.35;0.50;;;20.00;99.90;;;;;;4919584;29;20039;-87
2022/06/08 05:14:05;;;;;;;1.33;0.60;;;20.00;99.90;;;;;;4936690;29;20102;-87
2022/06/08 05:16:37;;;;;;;2.80;1.27;;;19.90;99.90;;;;;;4936910;29;20047;-86
2022/06/08 05:19:12;;;;;;;1.40;0.90;;;19.70;99.90;;;;;;4920177;29;20110;-87
2022/06/08 05:22:13;;;;;;;3.30;0.68;;;19.70;99.90;;;;;;4919863;29;20027;-88
2022/06/08 05:31:21;;;;;;;4.70;0.70;;;19.40;99.90;;;;;;4933827;29;20039;-87
2022/06/08 05:33:47;;;;;;;4.68;0.52;;;19.40;99.90;;;;;;4921523;29;20054;-86
2022/06/08 05:36:28;;;;;;;1.45;0.63;;;19.40;99.90;;;;;;4907020;29;20370;-87
2022/06/08 05:38:59;;;;;;;2.33;0.60;;;19.40;99.90;;;;;;4924032;29;20046;-86
2022/06/08 05:41:33;;;;;;;2.40;0.70;;;19.50;99.90;;;;;;4900923;29;20040;-87
2022/06/08 05:44:01;;;;;;;3.83;1.17;;;19.50;99.90;;;;;;4900815;29;20028;-87
2022/06/08 05:46:28;;;;;;;4.60;0.70;;;19.50;99.90;;;;;;4900984;29;20040;-88
2022/06/08 05:48:58;;;;;;;1.83;0.52;;;19.60;99.90;;;;;;4900137;29;20035;-87
2022/06/08 05:51:40;;;;;;;0.70;0.70;;;19.70;99.90;;;;;;4916998;29;20111;-87
2022/06/08 05:54:53;;;;;;;0.85;0.70;;;19.80;99.90;;;;;;4900603;29;20051;-87
2022/06/08 05:57:35;;;;;;;;;;;;;;;;;;;;;
2022/06/08 06:00:20;;;;;;;3.28;0.70;;;19.90;99.90;;;;;;4917459;29;20046;-87
2022/06/08 06:02:54;;;;;;;0.70;0.70;;;19.90;99.90;;;;;;4900731;29;20038;-87
2022/06/08 06:05:38;;;;;;;16.65;4.40;;;19.80;99.90;;;;;;4900178;29;20040;-87
2022/06/08 06:08:08;;;;;;;1.33;0.70;;;19.80;99.90;;;;;;4917139;29;20084;-87
2022/06/08 06:10:50;;;;;;;0.80;0.80;;;19.90;99.90;;;;;;4900458;29;20043;-88
2022/06/08 06:13:39;;;;;;;;;;;;;;;;;;;;;
2022/06/08 06:16:26;;;;;;;2.10;0.88;;;19.90;99.90;;;;;;4898436;29;20044;-87
2022/06/08 06:19:30;;;;;;;;;;;;;;;;;;;;;
2022/06/08 06:28:45;;;;;;;1.48;1.02;;;20.00;99.90;;;;;;4822768;29;20034;-87
2022/06/08 06:31:22;;;;;;;7.03;1.88;;;20.00;99.90;;;;;;4881557;29;20033;-88
2022/06/08 06:34:29;;;;;;;;;;;;;;;;;;;;;
2022/06/08 06:37:11;;;;;;;;;;;;;;;;;;;;;
2022/06/08 06:39:37;;;;;;;4.22;0.82;;;20.20;99.90;;;;;;4840341;29;20402;-87
2022/06/08 06:42:03;;;;;;;1.00;0.90;;;20.20;99.90;;;;;;4899333;29;20112;-84
2022/06/08 06:44:29;;;;;;;1.60;0.70;;;20.20;99.90;;;;;;4885413;29;20541;-90
2022/06/08 06:46:56;;;;;;;2.15;0.75;;;20.20;99.90;;;;;;4902154;29;20032;-84
2022/06/08 06:49:22;;;;;;;1.20;0.60;;;20.30;99.90;;;;;;4902142;29;20045;-86
2022/06/08 06:51:48;;;;;;;2.70;0.70;;;20.30;99.90;;;;;;4902089;29;20040;-84
2022/06/08 06:54:17;;;;;;;1.67;0.70;;;20.30;99.90;;;;;;4900516;29;20722;-87
2022/06/08 06:56:44;;;;;;;3.15;0.77;;;20.40;99.90;;;;;;4901860;29;20029;-85
2022/06/08 06:59:14;;;;;;;5.85;0.80;;;20.50;99.90;;;;;;4901826;29;20055;-89
2022/06/08 07:01:42;;;;;;;1.60;0.85;;;20.70;99.90;;;;;;4884907;29;20036;-89
2022/06/08 07:04:08;;;;;;;2.10;0.70;;;20.80;99.90;;;;;;4902099;29;20051;-89
2022/06/08 07:06:37;;;;;;;3.83;0.57;;;21.00;99.90;;;;;;4914618;29;20028;-85
2022/06/08 07:09:08;;;;;;;5.70;0.55;;;21.10;99.90;;;;;;4916327;29;20070;-83
2022/06/08 07:11:40;;;;;;;1.33;0.50;;;21.20;99.90;;;;;;4896895;29;20565;-85
2022/06/08 07:14:11;;;;;;;3.17;0.80;;;21.40;99.90;;;;;;4925283;29;20118;-90
2022/06/08 07:16:36;;;;;;;3.40;0.90;;;21.50;99.90;;;;;;4908982;29;20040;-85
2022/06/08 07:19:08;;;;;;;7.43;0.70;;;21.60;99.90;;;;;;4925294;29;20028;-90
2022/06/08 07:21:38;;;;;;;0.68;0.60;;;21.70;99.90;;;;;;4923864;29;20555;-87
2022/06/08 07:24:04;;;;;;;1.98;0.57;;;21.70;99.90;;;;;;4925937;29;20493;-86
2022/06/08 07:26:54;;;;;;;0.63;0.63;;;21.80;99.90;;;;;;4914245;29;20486;-90
2022/06/08 07:29:28;;;;;;;4.03;0.98;;;21.90;99.90;;;;;;4912169;29;20036;-85
2022/06/08 07:31:57;;;;;;;3.85;0.70;;;22.10;99.90;;;;;;4918006;29;20036;-86
2022/06/08 07:34:29;;;;;;;1.80;0.65;;;22.20;99.90;;;;;;4904115;29;20468;-85
2022/06/08 07:36:55;;;;;;;2.03;0.60;;;22.50;99.90;;;;;;4905171;29;20625;-85
2022/06/08 07:39:22;;;;;;;4.05;0.77;;;22.60;99.90;;;;;;4913358;29;20135;-85
2022/06/08 07:41:50;;;;;;;0.73;0.60;;;22.70;99.90;;;;;;4925749;29;20507;-86
2022/06/08 07:44:22;;;;;;;0.82;0.55;;;22.70;99.90;;;;;;4934907;29;20031;-86
2022/06/08 07:46:49;;;;;;;9.90;1.00;;;22.70;99.90;;;;;;4903760;29;20482;-86
2022/06/08 07:49:49;;;;;;;3.22;0.70;;;22.80;99.90;;;;;;4928482;29;20485;-86
2022/06/08 08:39:56;;;;;;;3.80;0.60;;;23.60;99.90;;;;;;1451044;27;20048;-88
2022/06/08 08:42:34;;;;;;;3.65;0.68;;;23.70;99.90;;;;;;4948059;29;20099;-89
2022/06/08 08:45:11;;;;;;;6.35;0.88;;;23.90;99.90;;;;;;4921130;29;20020;-88
2022/06/08 11:04:07;;;;;;;;;;;;;;;;;;;;;
2022/06/08 11:06:53;;;;;;;4.60;0.57;;;26.80;99.90;;;;;;4873021;29;20080;-81
2022/06/08 11:09:39;;;;;;;2.20;0.82;;;27.00;99.90;;;;;;4911047;29;20032;-81
2022/06/08 11:12:20;;;;;;;1.33;0.40;;;27.00;99.90;;;;;;4885627;29;20041;-81
2022/06/08 11:14:56;;;;;;;0.45;0.40;;;26.90;99.90;;;;;;4898156;29;20048;-81
2022/06/08 12:29:59;;;;;;;5.68;0.30;;;26.50;99.90;;;;;;4822493;29;20125;-82
2022/06/08 12:33:05;;;;;;;2.67;1.00;;;26.50;99.90;;;;;;4817347;29;20122;-83
2022/06/08 12:35:57;;;;;;;2.00;0.82;;;26.60;99.90;;;;;;4807045;29;20054;-83
2022/06/08 12:38:30;;;;;;;2.08;0.30;;;26.70;99.90;;;;;;4822015;29;20083;-82
2022/06/08 12:41:43;;;;;;;3.00;0.60;;;26.80;99.90;;;;;;4821743;29;20042;-82
2022/06/08 12:44:32;;;;;;;13.13;0.73;;;26.90;99.90;;;;;;4879441;29;20044;-82
2022/06/08 12:47:51;;;;;;;2.10;0.70;;;26.70;99.90;;;;;;4878999;29;20048;-81
2022/06/08 12:54:37;;;;;;;3.30;1.10;;;26.70;99.90;;;;;;4858938;29;20399;-81
2022/06/08 13:01:35;;;;;;;;;;;;;;;;;;;;;
2022/06/08 13:08:32;;;;;;;;;;;;;;;;;;;;;
2022/06/08 13:21:52;;;;;;;1.05;0.70;;;26.90;99.90;;;;;;4857642;29;20403;-82
2022/06/08 13:25:08;;;;;;;;;;;;;;;;;;;;;
2022/06/08 13:35:08;;;;;;;;;;;;;;;;;;;;;
2022/06/08 15:42:09;;;;;;;2.83;0.40;;;26.60;99.20;;;;;;4891128;29;20523;-83
2022/06/08 15:44:38;;;;;;;2.63;0.50;;;26.60;99.00;;;;;;4858477;29;20037;-84
2022/06/08 16:53:20;;;;;;;0.90;0.60;;;26.60;99.90;;;;;;4888205;29;20398;-81
2022/06/08 17:04:28;;;;;;;;;;;;;;;;;;;;;
2022/06/08 17:17:38;;;;;;;2.05;0.80;;;26.40;99.90;;;;;;4652621;30;20517;-82
2022/06/08 17:49:58;;;;;;;1.42;1.00;;;25.80;99.90;;;;;;4816645;29;20049;-81
2022/06/08 17:52:50;;;;;;;2.17;1.10;;;25.80;99.90;;;;;;4822430;29;20063;-82
2022/06/08 18:06:25;;;;;;;3.60;1.38;;;25.60;99.90;;;;;;4697848;30;20060;-82
